map of PGA home
PGA - Airport
Location
City:  Page, Arizona, United States
Name:Page Municipal Airport
ICAO:KPGA
IATA:PGA
FAA LID:PGA

Details
Type:Airport (Part 139 Class III)
Use:Public/Civil
Latitude:3655'34"N (36.926083)
Longitude:11126'54"W (-111.448360)
Datum:WGS 1984
Elevation:4316 ft (1316 m)
Variation:10.58E (WMM2015v2 magnetic declination)
-0.09 annual change
Runways:2
Longest:5950 × 150 ft (1814 × 45.5 m), paved

Time
Time Zone:UTC-7
Local Time:

Weather
METAR:KPGA 041353Z AUTO 25003KT 10SM CLR 04/M01 A2977 RMK AO2 SLP065 T00391006 TSNO
TAF:KPGA 041138Z 0412/0512 VRB05KT P6SM FEW080 BKN250
FM041900 22010G16KT P6SM BKN060
FM050200 18009KT P6SM BKN060 BKN080 PROB30 0509/0512 -SHRA

Related Locations
Nearby:
Farthest:RRG: 11208 mi / 18037 km
Plaine Corail [Sir Gatan Duval Airport (Plaine Corail Airport)], Rodrigues Island, MU

Find:

   beyond  
but within

Other Information
Maps:
NOTAMs:
Links:
Sources:

  
  • flag of United States
  • flag of Arizona
  

Sectional Chart

Flight Planning
at skyvector.com

Satellite Image

Google Maps Satellite view

 

Copyright © 2004-2019 Karl L. Swartz. All rights reserved.
The Great Circle Mapper name and logo are trademarks of the Great Circle Mapper.
All other trademarks mentioned herein belong to their respective owners.
Please see credits for attibutions and further copyright information.

  Follow gcmap on Facebook Follow gcmap on Twitter GCmap on LinkedIn

hCard Microformat

Geo Microformat